Time;durP1;ratioP1;P1;durP2;ratioP2;P2;SDS_P1;SDS_P2;PMS_P1;PMS_P2;Temp;Humidity;BMP_temperature;BMP_pressure;BME280_temperature;BME280_humidity;BME280_pressure;Samples;Min_cycle;Max_cycle;Signal;HPM_P1;HPM_P2
2021/04/24 00:00:14;;;;;;;3.70;1.20;;;8.20;65.60;;;;;;4859567;29;20042;-61
2021/04/24 00:02:45;;;;;;;5.45;1.85;;;8.20;65.60;;;;;;4837189;29;20496;-61
2021/04/24 00:05:16;;;;;;;4.72;1.90;;;8.10;65.70;;;;;;4854533;29;20914;-61
2021/04/24 00:07:43;;;;;;;7.60;1.48;;;8.00;66.30;;;;;;4859232;29;20041;-61
2021/04/24 00:10:10;;;;;;;6.38;1.75;;;8.00;66.00;;;;;;4855007;29;20049;-61
2021/04/24 00:12:37;;;;;;;4.82;1.73;;;7.90;66.40;;;;;;4857383;29;20057;-61
2021/04/24 00:15:07;;;;;;;4.80;1.42;;;7.90;66.20;;;;;;4841825;29;20533;-61
2021/04/24 00:17:34;;;;;;;4.00;1.55;;;7.90;66.40;;;;;;4846894;29;20481;-61
2021/04/24 00:20:00;;;;;;;4.43;1.23;;;7.90;66.70;;;;;;4843506;29;20041;-61
2021/04/24 00:22:27;;;;;;;4.30;1.38;;;7.80;67.30;;;;;;4840454;29;20138;-62
2021/04/24 00:24:54;;;;;;;9.23;1.90;;;7.80;66.50;;;;;;4849733;29;20041;-62
2021/04/24 00:27:20;;;;;;;4.80;1.98;;;7.70;66.50;;;;;;4852653;29;20057;-62
2021/04/24 00:29:46;;;;;;;4.50;1.38;;;7.60;69.50;;;;;;4857687;29;20052;-62
2021/04/24 00:32:13;;;;;;;4.43;1.40;;;7.70;69.70;;;;;;4850452;29;20044;-62
2021/04/24 00:34:40;;;;;;;4.10;1.63;;;7.60;68.30;;;;;;4835067;29;20053;-62
2021/04/24 00:37:06;;;;;;;3.75;1.40;;;7.60;69.20;;;;;;4858367;29;20046;-62
2021/04/24 00:39:33;;;;;;;3.67;1.55;;;7.50;70.50;;;;;;4839533;29;20052;-62
2021/04/24 00:41:59;;;;;;;4.90;1.60;;;7.50;70.40;;;;;;4840999;29;20106;-62
2021/04/24 00:44:26;;;;;;;4.05;1.58;;;7.40;69.70;;;;;;4826460;29;20523;-62
2021/04/24 00:46:52;;;;;;;4.25;1.52;;;7.40;69.10;;;;;;4849743;29;20061;-62
2021/04/24 00:49:19;;;;;;;7.63;1.40;;;7.30;69.80;;;;;;4863333;29;20109;-62
2021/04/24 00:51:45;;;;;;;5.32;1.60;;;7.20;67.70;;;;;;4844996;29;20054;-62
2021/04/24 00:54:12;;;;;;;4.40;1.35;;;7.30;67.80;;;;;;4856146;29;20082;-62
2021/04/24 00:56:38;;;;;;;5.88;1.30;;;7.30;67.30;;;;;;4820153;29;20053;-62
2021/04/24 00:59:05;;;;;;;5.60;1.52;;;7.30;67.10;;;;;;4864598;29;20048;-62
2021/04/24 01:01:31;;;;;;;7.25;1.67;;;7.30;67.80;;;;;;4861795;29;20045;-62
2021/04/24 01:03:59;;;;;;;4.22;2.00;;;7.30;69.10;;;;;;4856504;29;20490;-62
2021/04/24 01:06:25;;;;;;;4.53;1.70;;;7.20;70.10;;;;;;4855567;29;20046;-62
2021/04/24 01:08:52;;;;;;;4.85;2.00;;;7.10;71.00;;;;;;4863271;29;20064;-62
2021/04/24 01:11:18;;;;;;;7.38;2.10;;;7.10;71.70;;;;;;4866482;29;20121;-62
2021/04/24 01:13:45;;;;;;;5.70;1.90;;;7.00;70.80;;;;;;4861514;29;20045;-62
2021/04/24 01:16:12;;;;;;;4.60;1.90;;;6.90;69.80;;;;;;4859755;29;20493;-62
2021/04/24 01:18:39;;;;;;;6.32;1.65;;;6.90;69.80;;;;;;4854620;29;20553;-62
2021/04/24 01:21:06;;;;;;;4.43;1.95;;;6.70;70.00;;;;;;4844030;29;20056;-62
2021/04/24 01:23:36;;;;;;;7.00;1.70;;;6.80;70.70;;;;;;4865796;29;20073;-61
2021/04/24 01:26:03;;;;;;;5.10;2.03;;;6.70;70.30;;;;;;4859838;29;20050;-62
2021/04/24 01:28:30;;;;;;;3.60;1.48;;;6.70;70.50;;;;;;4846577;29;20457;-61
2021/04/24 01:30:57;;;;;;;5.95;1.48;;;6.60;70.60;;;;;;4853557;29;20054;-62
2021/04/24 01:33:23;;;;;;;5.07;1.75;;;6.60;71.80;;;;;;4856518;29;20101;-62
2021/04/24 01:35:50;;;;;;;6.85;2.15;;;6.60;71.30;;;;;;4846510;29;20033;-61
2021/04/24 01:38:17;;;;;;;4.78;1.10;;;6.50;72.30;;;;;;4848696;29;20454;-62
2021/04/24 01:40:44;;;;;;;4.28;1.20;;;6.50;72.60;;;;;;4856406;29;20058;-62
2021/04/24 01:43:11;;;;;;;5.75;1.45;;;6.50;72.10;;;;;;4845057;29;20068;-62
2021/04/24 01:45:38;;;;;;;3.03;1.17;;;6.50;72.40;;;;;;4862967;29;20042;-62
2021/04/24 01:48:06;;;;;;;5.25;1.65;;;6.50;71.50;;;;;;4862357;29;20517;-62
2021/04/24 01:50:40;;;;;;;6.00;1.58;;;6.60;71.50;;;;;;4847053;29;20121;-62
2021/04/24 01:53:11;;;;;;;7.20;1.30;;;6.70;70.90;;;;;;4834555;29;20080;-61
2021/04/24 01:55:40;;;;;;;7.13;2.15;;;6.60;71.50;;;;;;4859070;29;20046;-61
2021/04/24 01:58:09;;;;;;;5.18;1.67;;;6.60;71.20;;;;;;4846646;29;20122;-62
2021/04/24 02:00:57;;;;;;;5.82;1.92;;;6.60;70.60;;;;;;4848442;29;20037;-62
2021/04/24 02:03:23;;;;;;;6.03;1.92;;;6.70;70.50;;;;;;4860809;29;20049;-62
2021/04/24 02:05:50;;;;;;;4.43;1.58;;;6.60;70.70;;;;;;4829614;29;20049;-61
2021/04/24 02:08:22;;;;;;;3.15;1.33;;;6.70;70.50;;;;;;4849577;29;20061;-61
2021/04/24 02:10:52;;;;;;;9.88;1.88;;;6.70;70.80;;;;;;4833596;29;20045;-61
2021/04/24 02:13:29;;;;;;;4.35;1.33;;;6.70;70.80;;;;;;4839316;29;20053;-61
2021/04/24 02:15:56;;;;;;;5.97;1.67;;;6.70;70.50;;;;;;4843309;29;20047;-62
2021/04/24 02:18:24;;;;;;;7.10;1.95;;;6.70;71.10;;;;;;4858628;29;20046;-62
2021/04/24 02:20:51;;;;;;;3.50;1.42;;;6.70;70.80;;;;;;4859408;29;20128;-62
2021/04/24 02:23:19;;;;;;;4.32;1.30;;;6.80;70.50;;;;;;4844392;29;20102;-62
2021/04/24 02:25:46;;;;;;;4.53;1.63;;;6.80;70.40;;;;;;4853678;29;20506;-62
2021/04/24 02:28:13;;;;;;;5.78;2.00;;;6.70;70.40;;;;;;4856253;29;20049;-62
2021/04/24 02:30:40;;;;;;;6.25;2.10;;;6.80;70.20;;;;;;4856885;29;20092;-62
2021/04/24 02:33:07;;;;;;;4.75;1.48;;;6.90;70.40;;;;;;4860264;29;20049;-62
2021/04/24 02:35:34;;;;;;;4.78;1.58;;;6.90;70.10;;;;;;4858447;29;20049;-62
2021/04/24 02:38:01;;;;;;;3.65;1.40;;;6.90;70.30;;;;;;4840658;29;20041;-62
2021/04/24 02:40:27;;;;;;;4.22;1.30;;;6.80;69.90;;;;;;4853153;29;20054;-62
2021/04/24 02:42:54;;;;;;;6.25;1.63;;;6.80;71.50;;;;;;4856200;29;20045;-62
2021/04/24 02:45:20;;;;;;;6.50;1.52;;;6.70;71.00;;;;;;4843182;29;20836;-62
2021/04/24 02:47:47;;;;;;;3.80;1.20;;;6.70;70.10;;;;;;4859547;29;20050;-62
2021/04/24 02:50:18;;;;;;;4.55;1.63;;;6.70;70.90;;;;;;4841971;29;20053;-62
2021/04/24 02:52:46;;;;;;;3.42;1.55;;;6.60;71.60;;;;;;4858480;29;20045;-61
2021/04/24 02:55:15;;;;;;;4.93;1.63;;;6.60;72.40;;;;;;4857499;29;20077;-61
2021/04/24 02:57:42;;;;;;;3.30;1.10;;;6.50;72.60;;;;;;4853629;29;20501;-61
2021/04/24 03:00:10;;;;;;;7.40;2.05;;;6.30;73.20;;;;;;4856033;29;20094;-62
2021/04/24 03:02:37;;;;;;;4.78;1.80;;;6.20;73.70;;;;;;4858986;29;20041;-62
2021/04/24 03:05:13;;;;;;;8.38;1.63;;;6.20;74.00;;;;;;4845814;29;20112;-61
2021/04/24 03:07:40;;;;;;;5.80;1.92;;;6.00;75.00;;;;;;4850300;29;20052;-61
2021/04/24 03:10:09;;;;;;;6.03;1.90;;;6.00;76.20;;;;;;4855007;29;20046;-61
2021/04/24 03:12:35;;;;;;;4.78;1.63;;;5.90;76.00;;;;;;4859285;29;20049;-61
2021/04/24 03:15:04;;;;;;;7.80;2.60;;;5.90;76.40;;;;;;4859283;29;20189;-61
2021/04/24 03:17:31;;;;;;;4.22;1.63;;;5.80;76.40;;;;;;4832725;29;20902;-61
2021/04/24 03:19:58;;;;;;;5.07;1.75;;;5.70;78.00;;;;;;4839261;29;20048;-61
2021/04/24 03:22:24;;;;;;;6.85;2.65;;;5.60;78.60;;;;;;4858809;29;20071;-61
2021/04/24 03:24:51;;;;;;;6.57;2.22;;;5.60;78.60;;;;;;4840350;29;20489;-61
2021/04/24 03:27:18;;;;;;;10.05;2.50;;;5.50;79.00;;;;;;4845982;29;20046;-61
2021/04/24 03:29:44;;;;;;;7.88;2.65;;;5.40;79.00;;;;;;4863629;29;20523;-61
2021/04/24 03:32:11;;;;;;;5.13;2.17;;;5.50;78.50;;;;;;4840782;29;20053;-62
2021/04/24 03:34:38;;;;;;;8.30;3.38;;;5.70;79.10;;;;;;4846390;29;20042;-61
2021/04/24 03:37:04;;;;;;;8.02;3.38;;;5.90;77.90;;;;;;4856012;29;20498;-61
2021/04/24 03:39:31;;;;;;;8.35;3.13;;;5.80;77.30;;;;;;4858502;29;20390;-61
2021/04/24 03:41:57;;;;;;;8.13;2.22;;;5.80;77.80;;;;;;4857942;29;20054;-61
2021/04/24 03:44:24;;;;;;;9.18;2.85;;;5.40;77.70;;;;;;4858422;29;20056;-62
2021/04/24 03:46:51;;;;;;;7.22;2.78;;;5.30;79.10;;;;;;4852613;29;20053;-61
2021/04/24 03:49:17;;;;;;;8.55;2.70;;;5.30;80.50;;;;;;4839189;29;20110;-61
2021/04/24 03:51:44;;;;;;;10.23;2.85;;;5.20;81.40;;;;;;4855021;29;20105;-61
2021/04/24 03:54:10;;;;;;;6.93;2.50;;;5.20;81.40;;;;;;4836234;29;20054;-61
2021/04/24 03:56:37;;;;;;;5.78;2.28;;;5.20;82.00;;;;;;4852440;29;20049;-61
2021/04/24 03:59:03;;;;;;;8.10;2.55;;;5.10;82.20;;;;;;4842274;29;20033;-61
2021/04/24 04:01:30;;;;;;;10.20;3.15;;;5.00;83.20;;;;;;4861622;29;20045;-61
2021/04/24 04:03:56;;;;;;;5.55;2.60;;;5.10;83.20;;;;;;4861866;29;20048;-61
2021/04/24 04:06:23;;;;;;;8.73;3.10;;;5.00;83.90;;;;;;4839817;29;20136;-61
2021/04/24 04:08:50;;;;;;;11.90;3.78;;;5.00;84.10;;;;;;4843131;29;20049;-61
2021/04/24 04:11:16;;;;;;;11.57;3.90;;;5.00;83.80;;;;;;4840716;29;20056;-62
2021/04/24 04:13:43;;;;;;;12.35;4.40;;;5.00;84.30;;;;;;4846830;29;20065;-61
2021/04/24 04:16:10;;;;;;;24.88;6.10;;;5.00;83.60;;;;;;4860243;29;20398;-62
2021/04/24 04:18:37;;;;;;;19.70;5.95;;;4.90;83.70;;;;;;4840869;29;20787;-61
2021/04/24 04:21:06;;;;;;;19.63;5.97;;;5.00;83.70;;;;;;4856587;29;20056;-61
2021/04/24 04:23:34;;;;;;;17.88;5.85;;;5.00;84.10;;;;;;4831386;29;20429;-61
2021/04/24 04:26:00;;;;;;;17.02;5.80;;;5.00;84.10;;;;;;4854866;29;20561;-61
2021/04/24 04:28:27;;;;;;;21.15;5.95;;;5.00;83.30;;;;;;4859172;29;20061;-61
2021/04/24 04:30:55;;;;;;;11.38;4.68;;;4.90;84.50;;;;;;4858623;29;20107;-61
2021/04/24 04:33:23;;;;;;;14.30;4.30;;;4.90;84.50;;;;;;4855909;29;20042;-61
2021/04/24 04:35:51;;;;;;;10.07;3.97;;;5.00;84.30;;;;;;4850083;29;20646;-61
2021/04/24 04:38:18;;;;;;;7.07;3.65;;;5.10;84.30;;;;;;4835149;29;20049;-61
2021/04/24 04:40:45;;;;;;;10.68;3.92;;;5.10;83.80;;;;;;4846591;29;20049;-62
2021/04/24 04:43:13;;;;;;;12.02;4.68;;;5.30;84.30;;;;;;4842200;29;20570;-62
2021/04/24 04:45:40;;;;;;;9.00;4.20;;;5.30;85.10;;;;;;4864817;29;20041;-62
2021/04/24 04:48:07;;;;;;;12.07;4.22;;;5.50;84.50;;;;;;4848336;29;20056;-61
2021/04/24 04:50:36;;;;;;;12.95;4.10;;;5.60;84.80;;;;;;4847771;29;20440;-61
2021/04/24 04:53:03;;;;;;;12.60;4.97;;;5.70;83.40;;;;;;4835616;29;20061;-61
2021/04/24 04:55:31;;;;;;;7.85;3.30;;;5.90;82.90;;;;;;4862632;29;20046;-61
2021/04/24 04:57:57;;;;;;;8.02;3.33;;;6.00;82.00;;;;;;4851761;29;20045;-61
2021/04/24 05:00:25;;;;;;;7.55;3.25;;;6.20;80.60;;;;;;4863023;29;20049;-61
2021/04/24 05:02:52;;;;;;;9.55;3.42;;;6.40;79.70;;;;;;4859230;29;20059;-61
2021/04/24 05:05:20;;;;;;;10.98;3.88;;;6.70;78.20;;;;;;4842212;29;20577;-61
2021/04/24 05:07:49;;;;;;;9.68;3.63;;;6.90;77.40;;;;;;4853337;29;20049;-61
2021/04/24 05:10:23;;;;;;;12.70;4.05;;;7.10;76.70;;;;;;4856824;29;20045;-61
2021/04/24 05:12:50;;;;;;;11.70;4.07;;;7.10;76.00;;;;;;4835053;29;20057;-61
2021/04/24 05:15:17;;;;;;;10.95;4.50;;;7.30;75.50;;;;;;4859806;29;20042;-61
2021/04/24 05:17:45;;;;;;;8.32;3.47;;;7.40;74.00;;;;;;4852878;29;20459;-61
2021/04/24 05:20:12;;;;;;;7.90;3.10;;;7.50;73.40;;;;;;4856917;29;20049;-61
2021/04/24 05:22:39;;;;;;;11.52;3.20;;;7.60;73.80;;;;;;4853230;29;20045;-61
2021/04/24 05:25:06;;;;;;;6.97;2.67;;;7.60;73.40;;;;;;4843462;29;20054;-61
2021/04/24 05:27:33;;;;;;;7.20;3.08;;;7.80;72.60;;;;;;4833475;29;20054;-61
2021/04/24 05:29:59;;;;;;;9.75;3.42;;;7.90;71.10;;;;;;4829264;29;20568;-61
2021/04/24 05:32:28;;;;;;;6.40;2.38;;;8.00;70.80;;;;;;4839902;29;20130;-61
2021/04/24 05:34:54;;;;;;;5.95;2.50;;;8.10;71.00;;;;;;4848817;29;20110;-61
2021/04/24 05:37:21;;;;;;;8.68;2.75;;;8.10;70.50;;;;;;4848128;29;20045;-61
2021/04/24 05:39:47;;;;;;;6.90;2.78;;;8.20;70.00;;;;;;4844203;29;20046;-61
2021/04/24 05:42:14;;;;;;;6.40;2.58;;;8.20;70.80;;;;;;4852636;29;20482;-61
2021/04/24 05:44:41;;;;;;;7.47;2.70;;;8.30;69.50;;;;;;4854834;29;20038;-61
2021/04/24 05:47:07;;;;;;;7.65;2.63;;;8.50;69.20;;;;;;4837532;29;20049;-61
2021/04/24 05:49:34;;;;;;;10.05;3.25;;;8.60;68.20;;;;;;4840837;29;20093;-61
2021/04/24 05:52:04;;;;;;;5.45;2.53;;;8.60;67.80;;;;;;4844029;29;20484;-61
2021/04/24 05:54:30;;;;;;;6.38;3.15;;;8.70;67.20;;;;;;4849070;29;20062;-61
2021/04/24 05:56:57;;;;;;;7.03;2.53;;;8.80;67.10;;;;;;4858651;29;20053;-61
2021/04/24 05:59:23;;;;;;;8.70;2.80;;;8.90;66.70;;;;;;4833483;29;20057;-61
2021/04/24 06:01:50;;;;;;;9.75;3.13;;;9.00;66.20;;;;;;4839133;29;20067;-61
2021/04/24 06:04:16;;;;;;;8.95;3.00;;;9.00;66.40;;;;;;4831761;29;20046;-65
2021/04/24 06:06:43;;;;;;;5.68;2.17;;;9.10;66.10;;;;;;4836150;29;20065;-64
2021/04/24 06:09:10;;;;;;;6.35;2.72;;;9.10;66.10;;;;;;4840881;29;20081;-64
2021/04/24 06:11:37;;;;;;;7.93;3.13;;;9.30;66.50;;;;;;4852093;29;20106;-64
2021/04/24 06:14:04;;;;;;;6.70;2.55;;;9.30;67.20;;;;;;4849353;29;20098;-64
2021/04/24 06:16:31;;;;;;;9.00;3.03;;;9.40;65.90;;;;;;4857169;29;20081;-63
2021/04/24 06:18:58;;;;;;;11.27;3.20;;;9.40;64.70;;;;;;4853634;29;20497;-63
2021/04/24 06:21:24;;;;;;;8.18;2.72;;;9.40;66.50;;;;;;4833140;29;20459;-64
2021/04/24 06:23:51;;;;;;;6.32;2.58;;;9.50;65.00;;;;;;4845097;29;20049;-64
2021/04/24 06:26:19;;;;;;;6.55;2.70;;;9.60;66.80;;;;;;4852659;29;20593;-64
2021/04/24 06:28:45;;;;;;;7.15;2.30;;;9.70;65.50;;;;;;4819316;29;20058;-64
2021/04/24 06:31:12;;;;;;;5.65;2.45;;;9.80;66.00;;;;;;4851358;29;20050;-64
2021/04/24 06:33:38;;;;;;;5.85;2.58;;;9.90;65.10;;;;;;4828495;29;20686;-64
2021/04/24 06:36:06;;;;;;;8.40;2.70;;;9.70;64.40;;;;;;4825808;29;20049;-64
2021/04/24 06:38:33;;;;;;;7.93;3.17;;;9.70;63.60;;;;;;4839613;29;20053;-64
2021/04/24 06:40:59;;;;;;;8.57;2.45;;;9.80;64.30;;;;;;4851698;29;20390;-64
2021/04/24 06:43:26;;;;;;;7.97;3.22;;;9.90;63.80;;;;;;4838736;29;20050;-64
2021/04/24 06:45:52;;;;;;;7.20;2.50;;;9.90;62.50;;;;;;4829453;29;20060;-64
2021/04/24 06:48:19;;;;;;;4.85;2.65;;;9.90;62.80;;;;;;4844385;29;20514;-64
2021/04/24 06:50:45;;;;;;;5.75;2.25;;;9.90;63.20;;;;;;4825528;29;20069;-64
2021/04/24 06:53:12;;;;;;;6.90;2.70;;;10.00;63.00;;;;;;4851107;29;20049;-64
2021/04/24 06:55:38;;;;;;;6.43;2.97;;;10.10;62.80;;;;;;4824611;29;20098;-64
2021/04/24 06:58:05;;;;;;;8.95;3.22;;;10.20;63.00;;;;;;4824578;29;20054;-64
2021/04/24 07:00:32;;;;;;;6.38;2.30;;;10.20;63.40;;;;;;4846091;29;20050;-63
2021/04/24 07:02:58;;;;;;;9.07;3.22;;;10.10;62.30;;;;;;4846712;29;20049;-63
2021/04/24 07:05:25;;;;;;;8.82;3.05;;;10.00;62.30;;;;;;4846338;29;20053;-63
2021/04/24 07:07:52;;;;;;;9.75;4.00;;;10.20;62.60;;;;;;4841854;29;20073;-63
2021/04/24 07:10:18;;;;;;;6.35;2.95;;;10.30;62.60;;;;;;4856310;29;20042;-63
2021/04/24 07:12:46;;;;;;;6.82;3.05;;;10.40;62.40;;;;;;4839091;29;20482;-63
2021/04/24 07:15:13;;;;;;;11.85;3.00;;;10.50;62.50;;;;;;4836030;29;20156;-63
2021/04/24 07:17:40;;;;;;;8.60;2.92;;;10.40;61.90;;;;;;4853510;29;20113;-64
2021/04/24 07:20:09;;;;;;;10.13;3.30;;;10.50;65.20;;;;;;4848669;29;20386;-64
2021/04/24 07:22:37;;;;;;;7.90;3.63;;;10.60;64.60;;;;;;4851342;29;20042;-64
2021/04/24 07:25:04;;;;;;;6.15;3.03;;;10.70;63.60;;;;;;4833856;29;20056;-64
2021/04/24 07:27:31;;;;;;;9.60;3.20;;;10.70;60.70;;;;;;4838378;29;20053;-64
2021/04/24 07:29:58;;;;;;;6.18;3.03;;;10.70;62.10;;;;;;4829323;29;20106;-64
2021/04/24 07:32:24;;;;;;;5.13;2.88;;;10.70;61.40;;;;;;4852816;29;20057;-64
2021/04/24 07:34:51;;;;;;;9.15;3.58;;;10.70;61.80;;;;;;4846283;29;20092;-64
2021/04/24 07:37:17;;;;;;;11.13;4.13;;;10.70;62.00;;;;;;4822579;29;20045;-64
2021/04/24 07:39:44;;;;;;;10.75;3.53;;;10.80;62.20;;;;;;4828249;29;20046;-64
2021/04/24 07:42:11;;;;;;;7.85;3.78;;;10.80;60.40;;;;;;4847480;29;20105;-64
2021/04/24 07:44:38;;;;;;;7.60;3.28;;;10.80;60.70;;;;;;4848720;29;20102;-64
2021/04/24 07:47:05;;;;;;;6.18;3.15;;;10.90;59.60;;;;;;4846653;29;20053;-64
2021/04/24 07:49:32;;;;;;;8.80;3.47;;;10.80;59.30;;;;;;4839484;29;20046;-64
2021/04/24 07:51:58;;;;;;;8.90;3.72;;;10.90;58.80;;;;;;4850262;29;20475;-63
2021/04/24 07:54:25;;;;;;;7.53;3.40;;;10.90;59.90;;;;;;4838697;29;20050;-64
2021/04/24 07:56:51;;;;;;;8.93;3.75;;;11.10;59.20;;;;;;4827445;29;20057;-64
2021/04/24 07:59:18;;;;;;;8.57;3.25;;;11.10;58.70;;;;;;4832049;29;20042;-64
2021/04/24 08:01:44;;;;;;;8.00;3.30;;;11.10;57.30;;;;;;4847201;29;20041;-64
2021/04/24 08:04:11;;;;;;;7.35;2.90;;;11.20;59.10;;;;;;4844833;29;20038;-64
2021/04/24 08:06:37;;;;;;;7.43;2.97;;;11.30;59.10;;;;;;4829733;29;20148;-64
2021/04/24 08:09:05;;;;;;;9.13;2.97;;;11.30;56.90;;;;;;4827217;29;20078;-64
2021/04/24 08:11:33;;;;;;;10.40;2.65;;;11.40;56.60;;;;;;4837182;29;20049;-64
2021/04/24 08:13:59;;;;;;;4.60;2.10;;;11.50;57.40;;;;;;4845801;29;20064;-64
2021/04/24 08:16:26;;;;;;;10.23;3.42;;;11.40;55.20;;;;;;4847698;29;20120;-63
2021/04/24 08:18:53;;;;;;;8.90;3.13;;;11.40;55.30;;;;;;4848736;29;20037;-64
2021/04/24 08:21:20;;;;;;;9.70;2.80;;;11.40;55.70;;;;;;4857596;29;20045;-62
2021/04/24 08:23:47;;;;;;;4.95;2.40;;;11.30;56.10;;;;;;4854734;29;20086;-64
2021/04/24 08:26:14;;;;;;;6.63;2.65;;;11.40;55.80;;;;;;4818920;29;20057;-64
2021/04/24 08:28:40;;;;;;;5.75;2.22;;;11.50;56.30;;;;;;4838915;29;20054;-62
2021/04/24 08:31:07;;;;;;;9.68;3.13;;;11.60;56.20;;;;;;4829202;29;20068;-62
2021/04/24 08:33:34;;;;;;;7.75;2.60;;;11.70;55.60;;;;;;4841795;29;20101;-63
2021/04/24 08:36:02;;;;;;;9.38;3.03;;;11.70;54.40;;;;;;4827270;29;20053;-62
2021/04/24 08:38:28;;;;;;;7.50;2.72;;;11.60;53.00;;;;;;4840648;29;20910;-62
2021/04/24 08:40:54;;;;;;;5.15;2.83;;;11.70;54.30;;;;;;4834723;29;20046;-62
2021/04/24 08:43:22;;;;;;;6.03;2.60;;;11.90;57.20;;;;;;4842605;29;20057;-62
2021/04/24 08:45:49;;;;;;;5.47;2.42;;;12.10;55.50;;;;;;4849779;29;20905;-63
2021/04/24 08:48:20;;;;;;;6.75;2.40;;;12.20;54.50;;;;;;4826372;29;20049;-63
2021/04/24 08:50:47;;;;;;;5.63;2.35;;;12.20;54.90;;;;;;4824195;29;20058;-63
2021/04/24 08:53:17;;;;;;;7.40;2.60;;;12.30;53.90;;;;;;4837812;29;20071;-63
2021/04/24 08:55:45;;;;;;;7.78;2.63;;;12.20;53.70;;;;;;4849036;29;20064;-62
2021/04/24 08:58:13;;;;;;;7.30;3.15;;;12.30;54.60;;;;;;4839249;29;20110;-63
2021/04/24 09:00:42;;;;;;;9.50;3.35;;;12.40;53.80;;;;;;4842536;29;20406;-63
2021/04/24 09:03:11;;;;;;;4.32;1.85;;;12.50;52.70;;;;;;4828010;29;20068;-62
2021/04/24 09:05:39;;;;;;;7.43;2.38;;;12.50;52.00;;;;;;4850753;29;20042;-63
2021/04/24 09:08:07;;;;;;;3.90;2.20;;;12.60;51.50;;;;;;4835823;29;20058;-62
2021/04/24 09:10:44;;;;;;;5.82;2.42;;;12.60;51.60;;;;;;4842744;29;20049;-63
2021/04/24 09:13:16;;;;;;;4.95;2.10;;;12.70;51.80;;;;;;4843941;29;20045;-62
2021/04/24 09:15:44;;;;;;;6.65;2.00;;;12.80;50.90;;;;;;4843143;29;20054;-62
2021/04/24 09:18:12;;;;;;;7.13;2.70;;;12.90;51.60;;;;;;4837456;29;20054;-62
2021/04/24 09:21:03;;;;;;;7.72;3.40;;;13.00;52.40;;;;;;4831808;29;20137;-62
2021/04/24 09:23:32;;;;;;;8.98;2.90;;;13.10;51.50;;;;;;4846285;29;20049;-63
2021/04/24 09:26:00;;;;;;;7.20;2.42;;;13.10;51.00;;;;;;4832686;29;20069;-63
2021/04/24 09:28:32;;;;;;;6.03;2.17;;;13.10;49.40;;;;;;4845369;29;20086;-63
2021/04/24 09:31:22;;;;;;;7.13;1.98;;;13.20;51.20;;;;;;4846213;29;20719;-63
2021/04/24 09:33:54;;;;;;;6.97;3.20;;;13.30;53.30;;;;;;4850328;29;20071;-64
2021/04/24 09:36:22;;;;;;;;;;;13.40;50.00;;;;;;4853543;29;20843;-64
2021/04/24 09:38:52;;;;;;;8.40;2.72;;;13.40;49.70;;;;;;4840095;29;19935;-63
2021/04/24 09:41:27;;;;;;;5.68;2.50;;;13.50;49.70;;;;;;4847413;29;20152;-64
2021/04/24 09:44:01;;;;;;;7.05;2.13;;;13.30;48.20;;;;;;4847544;29;20046;-64
2021/04/24 09:46:35;;;;;;;6.43;1.80;;;13.30;47.00;;;;;;4855050;29;20595;-64
2021/04/24 09:49:20;;;;;;;5.97;1.92;;;13.50;47.90;;;;;;4834392;29;20042;-64
2021/04/24 09:51:57;;;;;;;6.47;2.47;;;13.60;49.30;;;;;;4847388;29;20526;-63
2021/04/24 09:54:35;;;;;;;5.72;2.28;;;13.50;47.30;;;;;;4846716;29;20050;-63
2021/04/24 09:57:07;;;;;;;7.00;2.75;;;13.60;51.90;;;;;;4838201;29;20517;-63
2021/04/24 09:59:53;;;;;;;3.93;2.00;;;13.70;47.20;;;;;;4829378;29;20110;-63
2021/04/24 10:02:33;;;;;;;5.20;1.95;;;13.80;46.70;;;;;;4857895;29;20046;-63
2021/04/24 10:05:17;;;;;;;6.78;2.53;;;14.00;47.40;;;;;;4847546;29;20042;-64
2021/04/24 10:07:51;;;;;;;6.28;2.25;;;14.00;46.60;;;;;;4825349;29;20160;-64
2021/04/24 10:10:30;;;;;;;4.10;1.98;;;13.90;46.40;;;;;;4848677;29;20050;-64
2021/04/24 10:13:03;;;;;;;5.45;1.65;;;14.00;46.40;;;;;;4856488;29;20041;-63
2021/04/24 10:15:45;;;;;;;6.72;1.85;;;14.10;45.60;;;;;;4847581;29;20055;-64
2021/04/24 10:18:14;;;;;;;5.20;2.10;;;14.00;46.50;;;;;;4843800;29;20057;-63
2021/04/24 10:20:44;;;;;;;6.60;2.13;;;14.00;45.90;;;;;;4845626;29;20045;-63
2021/04/24 10:23:12;;;;;;;5.28;2.10;;;14.10;45.80;;;;;;4846979;29;20045;-63
2021/04/24 10:25:41;;;;;;;8.27;2.03;;;14.20;45.30;;;;;;4847505;29;20072;-64
2021/04/24 10:28:07;;;;;;;5.80;2.28;;;14.40;46.80;;;;;;4847056;29;20071;-64
2021/04/24 10:30:34;;;;;;;3.60;1.63;;;14.40;44.20;;;;;;4830555;29;20068;-64
2021/04/24 10:33:03;;;;;;;7.50;1.58;;;14.30;45.30;;;;;;4836976;29;20422;-64
2021/04/24 10:35:32;;;;;;;6.63;1.77;;;14.50;44.50;;;;;;4835245;29;20045;-64
2021/04/24 10:38:01;;;;;;;7.45;1.83;;;14.70;44.80;;;;;;4849388;29;20132;-64
2021/04/24 10:40:28;;;;;;;6.32;1.88;;;14.80;44.10;;;;;;4842272;29;20597;-64
2021/04/24 10:42:58;;;;;;;18.02;6.10;;;14.80;42.80;;;;;;4847897;29;20042;-63
2021/04/24 10:45:33;;;;;;;17.58;5.80;;;14.60;44.40;;;;;;4831023;29;20102;-64
2021/04/24 10:48:00;;;;;;;34.55;10.32;;;14.80;48.10;;;;;;4846787;29;20053;-63
2021/04/24 10:50:39;;;;;;;62.30;20.70;;;15.00;43.90;;;;;;4828775;29;20106;-64
2021/04/24 10:53:30;;;;;;;7.85;3.42;;;15.10;43.80;;;;;;4843700;29;20049;-64
2021/04/24 10:55:59;;;;;;;4.53;1.95;;;15.10;43.40;;;;;;4838240;29;20671;-64
2021/04/24 10:58:29;;;;;;;4.82;1.88;;;15.20;44.30;;;;;;4849016;29;20054;-64
2021/04/24 11:00:57;;;;;;;6.82;2.15;;;15.30;44.60;;;;;;4845814;29;20042;-64
2021/04/24 11:03:46;;;;;;;6.75;2.20;;;15.40;43.30;;;;;;4843492;29;20061;-64
2021/04/24 11:06:22;;;;;;;7.47;2.78;;;15.50;45.70;;;;;;4839611;29;20054;-64
2021/04/24 11:08:51;;;;;;;7.63;3.30;;;15.70;42.90;;;;;;4832362;29;20049;-64
2021/04/24 11:11:22;;;;;;;4.05;2.10;;;15.50;42.50;;;;;;4848654;29;20054;-64
2021/04/24 11:13:52;;;;;;;6.38;2.30;;;15.60;44.90;;;;;;4843709;29;20048;-64
2021/04/24 11:16:20;;;;;;;4.60;2.05;;;15.70;43.20;;;;;;4851406;29;20049;-64
2021/04/24 11:18:50;;;;;;;5.25;1.90;;;15.80;44.10;;;;;;4847929;29;20554;-64
2021/04/24 11:21:17;;;;;;;5.70;2.15;;;16.00;43.00;;;;;;4844272;29;20053;-64
2021/04/24 11:23:45;;;;;;;6.95;2.08;;;16.10;42.40;;;;;;4850190;29;20049;-64
2021/04/24 11:26:19;;;;;;;6.05;1.73;;;15.90;41.00;;;;;;4845834;29;20097;-64
2021/04/24 11:29:12;;;;;;;4.57;1.65;;;16.00;41.20;;;;;;4848513;29;20061;-64
2021/04/24 11:31:50;;;;;;;5.45;2.20;;;16.00;41.80;;;;;;4845957;29;20085;-64
2021/04/24 11:34:47;;;;;;;9.57;3.20;;;15.80;42.70;;;;;;4825706;29;20052;-64
2021/04/24 11:37:28;;;;;;;5.45;1.80;;;16.00;42.10;;;;;;4843246;29;20082;-64
2021/04/24 11:40:22;;;;;;;5.00;2.20;;;16.00;42.20;;;;;;4833634;29;20052;-64
2021/04/24 11:43:07;;;;;;;4.80;2.10;;;16.00;40.90;;;;;;4856770;29;20052;-63
2021/04/24 11:45:50;;;;;;;3.88;2.13;;;16.10;41.70;;;;;;4850375;29;20042;-63
2021/04/24 11:48:49;;;;;;;7.63;2.67;;;16.10;41.10;;;;;;4845613;29;20064;-63
2021/04/24 11:51:35;;;;;;;6.35;2.60;;;16.10;41.50;;;;;;4850351;29;20041;-63
2021/04/24 11:54:08;;;;;;;6.22;2.67;;;16.30;40.00;;;;;;4843945;29;20038;-63
2021/04/24 11:56:35;;;;;;;9.52;2.08;;;16.30;41.20;;;;;;4833389;29;20081;-63
2021/04/24 11:59:03;;;;;;;9.23;2.70;;;16.30;39.80;;;;;;4850266;29;20133;-63
2021/04/24 12:01:30;;;;;;;5.57;2.67;;;16.10;41.20;;;;;;4840040;29;20042;-63
2021/04/24 12:03:57;;;;;;;4.97;2.53;;;16.30;40.60;;;;;;4851798;29;20045;-63
2021/04/24 12:06:41;;;;;;;7.55;2.40;;;16.40;41.40;;;;;;4848513;29;20053;-63
2021/04/24 12:09:12;;;;;;;6.65;2.60;;;16.40;41.20;;;;;;4854949;29;20091;-63
2021/04/24 12:11:40;;;;;;;6.10;2.60;;;16.60;44.30;;;;;;4845492;29;20045;-63
2021/04/24 12:14:07;;;;;;;7.88;2.95;;;16.70;42.00;;;;;;4854825;29;20041;-63
2021/04/24 12:16:46;;;;;;;5.18;2.40;;;16.90;40.90;;;;;;4850540;29;20385;-63
2021/04/24 12:19:30;;;;;;;7.30;2.80;;;17.30;42.70;;;;;;4851513;29;20046;-64
2021/04/24 12:22:14;;;;;;;7.00;2.42;;;17.80;39.90;;;;;;4858339;29;20073;-64
2021/04/24 12:25:02;;;;;;;11.25;2.97;;;18.10;40.40;;;;;;4844003;29;20483;-64
2021/04/24 12:27:34;;;;;;;5.88;2.53;;;18.00;38.80;;;;;;4834718;29;20472;-64
2021/04/24 12:30:11;;;;;;;10.70;3.97;;;17.60;37.90;;;;;;4831430;29;20066;-64
2021/04/24 12:32:46;;;;;;;7.80;3.35;;;17.50;38.70;;;;;;4839471;29;20056;-64
2021/04/24 12:35:15;;;;;;;6.25;3.15;;;17.60;39.50;;;;;;4854182;29;20054;-64
2021/04/24 12:37:43;;;;;;;8.77;3.50;;;17.60;38.30;;;;;;4846426;29;20042;-64
2021/04/24 12:40:17;;;;;;;6.32;2.40;;;17.90;40.00;;;;;;4829389;29;20461;-64
2021/04/24 12:42:44;;;;;;;5.80;2.50;;;18.00;38.70;;;;;;4838080;29;20318;-64
2021/04/24 12:45:18;;;;;;;5.47;2.75;;;18.20;38.10;;;;;;4852978;29;20508;-64
2021/04/24 12:47:45;;;;;;;5.65;2.50;;;18.00;38.50;;;;;;4856607;29;20057;-64
2021/04/24 12:50:20;;;;;;;6.25;2.38;;;18.40;40.10;;;;;;4831569;29;20401;-64
2021/04/24 12:52:49;;;;;;;6.13;2.72;;;18.40;39.30;;;;;;4831348;29;20102;-64
2021/04/24 12:55:16;;;;;;;8.15;3.42;;;18.60;38.70;;;;;;4838699;29;20064;-64
2021/04/24 12:57:51;;;;;;;5.60;2.67;;;18.30;38.60;;;;;;4840732;29;20053;-64
2021/04/24 13:00:19;;;;;;;11.18;3.35;;;17.90;39.60;;;;;;4860187;29;20079;-63